Time;durP1;ratioP1;P1;durP2;ratioP2;P2;SDS_P1;SDS_P2;PMS_P1;PMS_P2;Temp;Humidity;BMP_temperature;BMP_pressure;BME280_temperature;BME280_humidity;BME280_pressure;Samples;Min_cycle;Max_cycle;Signal;HPM_P1;HPM_P2
2021/05/02 00:00:28;;;;;;;60.70;31.80;;;8.10;99.90;;;;;;5013184;28;20467;-49
2021/05/02 00:02:55;;;;;;;59.28;31.77;;;8.00;99.90;;;;;;5012688;28;20840;-49
2021/05/02 00:05:23;;;;;;;57.95;31.50;;;8.10;99.90;;;;;;5012121;28;20784;-49
2021/05/02 00:07:49;;;;;;;60.55;32.40;;;8.00;99.90;;;;;;5013118;28;20381;-49
2021/05/02 00:10:17;;;;;;;59.97;31.77;;;8.00;99.90;;;;;;5012156;28;20385;-49
2021/05/02 00:12:43;;;;;;;57.08;29.67;;;7.90;99.90;;;;;;5012637;28;20446;-50
2021/05/02 00:15:11;;;;;;;53.72;29.58;;;7.90;99.90;;;;;;5012261;28;20385;-49
2021/05/02 00:17:38;;;;;;;50.78;29.83;;;7.80;99.90;;;;;;5012868;28;20377;-49
2021/05/02 00:20:06;;;;;;;49.38;29.38;;;7.90;99.90;;;;;;5012240;28;20388;-49
2021/05/02 00:22:34;;;;;;;49.35;28.77;;;8.00;99.90;;;;;;5012412;28;20412;-49
2021/05/02 00:25:01;;;;;;;45.17;26.80;;;8.10;99.90;;;;;;5012253;28;20506;-63
2021/05/02 00:27:29;;;;;;;47.42;28.00;;;7.90;99.90;;;;;;5012758;28;20385;-49
2021/05/02 00:29:55;;;;;;;47.80;28.50;;;7.90;99.90;;;;;;5012697;28;20952;-56
2021/05/02 00:32:22;;;;;;;43.83;26.75;;;7.90;99.90;;;;;;5012120;28;20475;-52
2021/05/02 00:34:49;;;;;;;47.33;27.88;;;8.00;99.90;;;;;;5011527;28;20740;-49
2021/05/02 00:37:17;;;;;;;49.30;28.27;;;8.00;99.90;;;;;;5010544;28;20405;-49
2021/05/02 00:39:43;;;;;;;48.50;27.73;;;8.00;99.90;;;;;;5012374;28;20870;-52
2021/05/02 00:42:17;;;;;;;50.75;28.63;;;8.00;99.90;;;;;;5010915;28;20520;-51
2021/05/02 00:44:50;;;;;;;53.55;30.63;;;7.90;99.90;;;;;;5012322;28;20385;-49
2021/05/02 00:47:18;;;;;;;54.58;32.35;;;8.10;99.90;;;;;;5009678;28;20990;-50
2021/05/02 00:49:53;;;;;;;58.25;34.22;;;7.90;99.90;;;;;;5012464;28;20871;-56
2021/05/02 00:52:30;;;;;;;61.88;37.47;;;8.00;99.90;;;;;;5011705;28;20750;-50
2021/05/02 00:55:36;;;;;;;62.08;38.55;;;8.00;99.90;;;;;;5010736;28;20478;-63
2021/05/02 00:58:05;;;;;;;60.28;35.72;;;8.00;99.90;;;;;;5000864;28;20476;-50
2021/05/02 01:00:35;;;;;;;56.63;33.47;;;8.00;99.90;;;;;;5011954;28;20471;-49
2021/05/02 01:03:03;;;;;;;59.08;34.22;;;7.90;99.90;;;;;;5011119;28;20398;-51
2021/05/02 01:05:31;;;;;;;58.33;35.15;;;7.90;99.90;;;;;;5011848;28;20380;-49
2021/05/02 01:07:59;;;;;;;52.67;30.60;;;7.90;99.90;;;;;;5011567;28;20912;-53
2021/05/02 01:10:25;;;;;;;50.08;31.98;;;8.10;99.90;;;;;;5011682;28;20702;-50
2021/05/02 01:12:53;;;;;;;49.80;29.52;;;7.90;99.90;;;;;;5012063;28;20448;-49
2021/05/02 01:15:33;;;;;;;53.78;31.40;;;7.90;99.90;;;;;;5009899;28;20439;-53
2021/05/02 01:18:07;;;;;;;50.88;31.65;;;7.90;99.90;;;;;;5011371;28;20464;-61
2021/05/02 01:20:42;;;;;;;51.47;31.58;;;7.90;99.90;;;;;;5010266;28;20393;-50
2021/05/02 01:23:10;;;;;;;52.50;32.53;;;7.90;99.90;;;;;;5011143;28;20403;-53
2021/05/02 01:25:36;;;;;;;53.03;31.70;;;7.90;99.90;;;;;;5012075;28;20392;-50
2021/05/02 01:28:04;;;;;;;50.25;31.00;;;8.00;99.90;;;;;;5010727;28;20484;-50
2021/05/02 01:30:30;;;;;;;46.33;28.27;;;7.90;99.90;;;;;;5011830;28;20385;-50
2021/05/02 01:32:56;;;;;;;45.78;28.00;;;7.90;99.90;;;;;;5011402;28;20401;-49
2021/05/02 01:35:23;;;;;;;45.03;26.80;;;7.90;99.90;;;;;;5009540;28;20389;-52
2021/05/02 01:37:51;;;;;;;42.67;26.77;;;7.90;99.90;;;;;;5011380;28;20438;-49
2021/05/02 01:40:17;;;;;;;42.70;26.60;;;7.90;99.90;;;;;;5010756;28;20404;-50
2021/05/02 01:42:43;;;;;;;44.53;26.48;;;7.80;99.90;;;;;;5011038;28;20413;-50
2021/05/02 01:45:10;;;;;;;42.70;26.13;;;7.70;99.90;;;;;;5009134;28;20756;-51
2021/05/02 01:47:41;;;;;;;41.55;26.25;;;7.80;99.90;;;;;;5009823;28;20392;-50
2021/05/02 01:50:08;;;;;;;41.72;25.80;;;7.80;99.90;;;;;;5010593;28;20377;-51
2021/05/02 01:52:39;;;;;;;44.13;27.00;;;7.90;99.90;;;;;;5011265;28;20388;-49
2021/05/02 01:55:06;;;;;;;43.45;26.83;;;7.70;99.90;;;;;;5009770;28;20549;-49
2021/05/02 01:57:33;;;;;;;46.38;27.98;;;7.60;99.90;;;;;;5010895;28;20860;-49
2021/05/02 02:00:02;;;;;;;44.25;27.13;;;7.60;99.90;;;;;;5009944;28;20907;-63
2021/05/02 02:02:29;;;;;;;46.17;28.05;;;8.30;99.90;;;;;;5010376;28;20871;-50
2021/05/02 02:04:57;;;;;;;48.00;28.00;;;7.50;99.90;;;;;;5011085;28;20918;-50
2021/05/02 02:07:23;;;;;;;50.95;29.10;;;7.50;99.90;;;;;;5010209;28;20404;-50
2021/05/02 02:09:51;;;;;;;50.40;29.45;;;7.50;99.90;;;;;;5010766;28;20471;-50
2021/05/02 02:12:17;;;;;;;50.47;29.75;;;7.60;99.90;;;;;;5008398;28;20409;-50
2021/05/02 02:14:43;;;;;;;52.08;30.23;;;7.50;99.90;;;;;;5010603;28;20480;-49
2021/05/02 02:17:09;;;;;;;55.75;31.90;;;7.50;99.90;;;;;;5009589;28;20385;-50
2021/05/02 02:19:36;;;;;;;53.75;30.80;;;7.50;99.90;;;;;;5009192;28;20809;-50
2021/05/02 02:22:02;;;;;;;57.22;32.30;;;7.60;99.90;;;;;;5010070;28;20419;-63
2021/05/02 02:24:44;;;;;;;50.67;30.67;;;7.50;99.90;;;;;;5010227;28;20819;-50
2021/05/02 02:27:11;;;;;;;56.53;32.80;;;7.60;99.90;;;;;;5008493;28;20396;-50
2021/05/02 02:29:48;;;;;;;60.10;34.45;;;7.40;99.90;;;;;;5008905;28;20408;-50
2021/05/02 02:32:16;;;;;;;59.05;33.28;;;7.40;99.90;;;;;;5009290;28;20417;-50
2021/05/02 02:34:46;;;;;;;56.58;33.92;;;7.40;99.90;;;;;;5009236;28;20423;-50
2021/05/02 02:37:18;;;;;;;58.95;34.25;;;7.40;99.90;;;;;;5009981;28;20389;-50
2021/05/02 02:39:48;;;;;;;63.80;34.88;;;7.40;99.90;;;;;;5010077;28;20376;-50
2021/05/02 02:42:15;;;;;;;57.70;32.90;;;7.40;99.90;;;;;;5009290;28;20420;-50
2021/05/02 02:44:47;;;;;;;60.90;33.70;;;7.50;99.90;;;;;;5010220;28;20421;-50
2021/05/02 02:47:18;;;;;;;61.42;34.40;;;7.40;99.90;;;;;;5008906;28;21116;-51
2021/05/02 02:49:48;;;;;;;62.67;35.80;;;7.40;99.90;;;;;;5010023;28;20789;-50
2021/05/02 02:52:20;;;;;;;57.10;32.47;;;7.50;99.90;;;;;;5009503;28;20381;-50
2021/05/02 02:55:05;;;;;;;57.35;32.78;;;7.50;99.90;;;;;;5009949;28;20405;-50
2021/05/02 02:57:38;;;;;;;50.38;31.77;;;7.40;99.90;;;;;;5010105;28;20380;-50
2021/05/02 03:00:05;;;;;;;59.85;34.05;;;7.40;99.90;;;;;;5007949;28;20741;-51
2021/05/02 03:02:32;;;;;;;59.35;34.42;;;7.40;99.90;;;;;;5009650;28;20381;-53
2021/05/02 03:04:59;;;;;;;61.53;35.10;;;7.50;99.90;;;;;;5009945;28;20411;-50
2021/05/02 03:07:25;;;;;;;59.80;34.92;;;7.40;99.90;;;;;;5009452;28;20373;-50
2021/05/02 03:09:51;;;;;;;53.30;31.30;;;7.60;99.90;;;;;;5008534;28;20388;-50
2021/05/02 03:12:21;;;;;;;58.25;33.83;;;7.50;99.90;;;;;;5009158;28;20475;-50
2021/05/02 03:14:53;;;;;;;56.22;33.25;;;5.40;99.90;;;;;;5009547;28;20494;-54
2021/05/02 03:17:22;;;;;;;54.03;33.05;;;7.60;99.90;;;;;;5007241;28;20409;-50
2021/05/02 03:19:58;;;;;;;57.38;31.88;;;10.50;99.90;;;;;;5009398;28;20802;-49
2021/05/02 03:22:33;;;;;;;56.72;33.47;;;7.50;99.90;;;;;;5008616;28;20373;-50
2021/05/02 03:25:01;;;;;;;54.35;33.80;;;7.90;99.90;;;;;;5009958;28;20389;-50
2021/05/02 03:27:34;;;;;;;57.13;34.45;;;7.50;99.90;;;;;;5009412;28;20460;-50
2021/05/02 03:30:06;;;;;;;56.47;32.75;;;7.50;99.90;;;;;;5009223;28;20875;-63
2021/05/02 03:32:35;;;;;;;52.58;31.92;;;7.60;99.90;;;;;;5009596;28;20405;-51
2021/05/02 03:35:05;;;;;;;56.78;35.15;;;7.50;99.90;;;;;;5009516;28;20392;-61
2021/05/02 03:37:35;;;;;;;64.20;37.28;;;7.50;99.90;;;;;;5009360;28;20369;-49
2021/05/02 03:40:03;;;;;;;74.28;40.17;;;7.60;99.90;;;;;;5008208;28;20392;-63
2021/05/02 03:42:29;;;;;;;59.75;35.50;;;7.70;99.90;;;;;;5008800;28;20452;-50
2021/05/02 03:44:55;;;;;;;53.23;32.17;;;7.80;99.90;;;;;;5008416;28;20877;-50
2021/05/02 03:47:21;;;;;;;52.40;32.50;;;7.80;99.90;;;;;;5008491;28;20381;-50
2021/05/02 03:49:46;;;;;;;47.13;30.20;;;7.80;99.90;;;;;;5009786;28;20427;-50
2021/05/02 03:52:15;;;;;;;50.03;30.80;;;7.90;99.90;;;;;;5007417;28;20392;-50
2021/05/02 03:54:42;;;;;;;51.22;30.20;;;7.90;99.90;;;;;;5009561;28;20830;-50
2021/05/02 03:57:08;;;;;;;47.33;30.42;;;7.90;99.90;;;;;;5008511;28;20424;-50
2021/05/02 03:59:34;;;;;;;47.10;30.70;;;7.90;99.90;;;;;;5009153;28;20466;-50
2021/05/02 04:02:04;;;;;;;51.08;30.85;;;8.00;99.90;;;;;;5009626;28;20381;-50
2021/05/02 04:04:31;;;;;;;51.45;31.58;;;8.00;99.90;;;;;;5009532;28;20868;-50
2021/05/02 04:07:01;;;;;;;49.63;30.02;;;8.00;99.90;;;;;;5009645;28;20864;-51
2021/05/02 04:09:28;;;;;;;51.60;31.75;;;8.00;99.90;;;;;;5009803;28;20440;-51
2021/05/02 04:11:54;;;;;;;52.65;32.50;;;8.00;99.90;;;;;;5007804;28;20411;-51
2021/05/02 04:14:19;;;;;;;53.20;32.58;;;7.90;99.90;;;;;;5008738;28;20496;-53
2021/05/02 04:17:15;;;;;;;52.57;33.10;;;8.00;99.90;;;;;;5009576;28;20475;-51
2021/05/02 04:19:42;;;;;;;54.65;32.22;;;7.80;99.90;;;;;;5003606;28;20900;-51
2021/05/02 04:22:11;;;;;;;50.20;31.67;;;7.70;99.90;;;;;;5008480;28;20861;-51
2021/05/02 04:24:37;;;;;;;47.42;30.38;;;7.70;99.90;;;;;;5013318;28;20439;-61
2021/05/02 04:27:03;;;;;;;50.13;31.53;;;7.70;99.90;;;;;;5012127;28;20903;-61
2021/05/02 04:29:31;;;;;;;51.03;31.93;;;7.70;99.90;;;;;;5012558;28;20423;-51
2021/05/02 04:31:58;;;;;;;49.95;31.05;;;7.90;99.90;;;;;;5012894;28;20397;-57
2021/05/02 04:34:24;;;;;;;51.15;31.05;;;8.50;99.90;;;;;;5011835;28;20485;-51
2021/05/02 04:36:50;;;;;;;51.05;32.20;;;7.80;99.90;;;;;;5011963;28;20884;-53
2021/05/02 04:39:17;;;;;;;52.03;32.10;;;7.70;99.90;;;;;;5011526;28;20384;-55
2021/05/02 04:41:43;;;;;;;52.88;31.60;;;7.60;99.90;;;;;;5010663;28;20427;-51
2021/05/02 04:44:08;;;;;;;54.08;33.25;;;8.10;99.90;;;;;;5011496;28;20385;-51
2021/05/02 04:46:35;;;;;;;54.40;33.13;;;7.50;99.90;;;;;;5012032;28;20385;-52
2021/05/02 04:49:01;;;;;;;52.13;33.07;;;10.10;99.90;;;;;;5012408;28;20407;-49
2021/05/02 04:51:27;;;;;;;51.95;32.67;;;7.60;99.90;;;;;;5010188;28;20473;-49
2021/05/02 04:53:53;;;;;;;54.63;33.10;;;7.50;99.90;;;;;;5010712;28;20462;-59
2021/05/02 04:56:19;;;;;;;56.13;33.50;;;7.40;99.90;;;;;;5010818;28;20385;-51
2021/05/02 04:58:45;;;;;;;52.73;33.60;;;7.50;99.90;;;;;;5012018;28;20863;-49
2021/05/02 05:01:13;;;;;;;54.22;33.08;;;7.60;99.90;;;;;;5011126;28;20865;-49
2021/05/02 05:03:41;;;;;;;51.83;33.25;;;7.70;99.90;;;;;;5011504;28;20832;-52
2021/05/02 05:06:07;;;;;;;50.95;31.77;;;7.80;99.90;;;;;;5011465;28;20607;-52
2021/05/02 05:08:32;;;;;;;50.40;31.13;;;7.90;99.90;;;;;;5011838;28;20844;-49
2021/05/02 05:10:58;;;;;;;46.93;30.40;;;7.90;99.90;;;;;;5012136;28;20397;-51
2021/05/02 05:13:25;;;;;;;45.22;28.75;;;8.00;99.90;;;;;;5010968;28;20456;-51
2021/05/02 05:15:54;;;;;;;49.30;30.73;;;8.10;99.90;;;;;;5010575;28;20399;-51
2021/05/02 05:18:20;;;;;;;46.40;29.80;;;8.00;99.90;;;;;;5009316;28;20393;-51
2021/05/02 05:20:46;;;;;;;45.60;28.83;;;8.00;99.90;;;;;;5011511;28;20399;-51
2021/05/02 05:23:11;;;;;;;50.90;30.67;;;8.00;99.90;;;;;;5010670;28;20875;-51
2021/05/02 05:25:37;;;;;;;49.72;31.42;;;8.10;99.90;;;;;;5011682;28;20443;-51
2021/05/02 05:28:03;;;;;;;49.83;31.03;;;8.00;99.90;;;;;;5011352;28;20448;-64
2021/05/02 05:30:28;;;;;;;51.35;31.50;;;7.90;99.90;;;;;;5010367;28;20459;-56
2021/05/02 05:33:03;;;;;;;51.13;32.17;;;7.90;99.90;;;;;;5010862;28;20381;-51
2021/05/02 05:35:30;;;;;;;46.90;30.03;;;8.10;99.90;;;;;;5010791;28;20779;-49
2021/05/02 05:37:55;;;;;;;50.50;30.97;;;8.30;99.90;;;;;;5011322;28;20408;-49
2021/05/02 05:40:21;;;;;;;47.57;30.63;;;7.80;99.90;;;;;;5010309;28;20460;-51
2021/05/02 05:42:47;;;;;;;46.50;29.83;;;7.90;99.90;;;;;;5011203;28;20409;-51
2021/05/02 05:45:13;;;;;;;45.90;29.70;;;8.00;99.90;;;;;;5010370;28;20389;-51
2021/05/02 05:47:38;;;;;;;45.63;29.70;;;8.10;99.90;;;;;;5011168;28;20415;-50
2021/05/02 05:50:11;;;;;;;48.07;30.43;;;8.20;99.90;;;;;;5010805;28;20408;-64
2021/05/02 05:52:37;;;;;;;45.72;28.95;;;8.30;99.90;;;;;;5007331;28;20505;-57
2021/05/02 05:55:03;;;;;;;46.70;30.03;;;8.40;99.90;;;;;;5020942;28;20509;-63
2021/05/02 05:57:29;;;;;;;42.60;28.43;;;8.50;99.90;;;;;;5015448;28;20391;-51
2021/05/02 05:59:54;;;;;;;42.75;28.88;;;8.50;99.90;;;;;;5030483;28;20719;-51
2021/05/02 06:02:20;;;;;;;41.03;28.10;;;8.60;99.90;;;;;;5020223;28;20475;-51
2021/05/02 06:04:46;;;;;;;42.55;28.80;;;8.70;99.90;;;;;;5010100;28;20864;-50
2021/05/02 06:07:12;;;;;;;41.20;28.30;;;8.80;99.90;;;;;;5009723;28;20391;-54
2021/05/02 06:09:37;;;;;;;43.97;27.80;;;9.00;99.90;;;;;;5010689;28;20389;-51
2021/05/02 06:12:03;;;;;;;40.13;26.80;;;9.20;99.90;;;;;;5028752;28;20400;-64
2021/05/02 06:14:29;;;;;;;39.90;26.60;;;9.30;99.90;;;;;;5029631;28;20770;-51
2021/05/02 06:16:55;;;;;;;34.93;24.20;;;9.60;99.90;;;;;;5030480;28;20398;-51
2021/05/02 06:19:20;;;;;;;34.40;23.45;;;10.00;99.90;;;;;;5029506;28;20866;-51
2021/05/02 06:21:46;;;;;;;35.83;24.27;;;10.20;99.90;;;;;;5030442;28;20387;-51
2021/05/02 06:24:11;;;;;;;37.67;24.60;;;10.30;99.90;;;;;;5029326;28;20383;-52
2021/05/02 06:26:37;;;;;;;34.83;23.42;;;10.20;99.90;;;;;;5029448;28;20850;-51
2021/05/02 06:29:03;;;;;;;36.03;24.17;;;9.80;99.90;;;;;;5011081;28;20465;-66
2021/05/02 06:31:29;;;;;;;35.30;24.58;;;9.60;99.90;;;;;;5010298;28;20847;-51
2021/05/02 06:33:54;;;;;;;37.75;25.85;;;9.40;99.90;;;;;;5009973;28;20419;-51
2021/05/02 06:36:20;;;;;;;36.77;24.40;;;9.40;99.90;;;;;;5008937;28;20397;-51
2021/05/02 06:38:45;;;;;;;37.00;25.15;;;9.20;99.90;;;;;;5010432;28;20388;-51
2021/05/02 06:41:11;;;;;;;39.17;26.60;;;9.40;99.90;;;;;;5009310;28;20867;-51
2021/05/02 06:43:37;;;;;;;34.35;23.60;;;9.50;99.90;;;;;;5010135;28;20423;-53
2021/05/02 06:46:03;;;;;;;33.70;24.60;;;9.80;99.90;;;;;;5009581;28;20837;-62
2021/05/02 06:48:29;;;;;;;36.50;25.00;;;10.00;99.90;;;;;;5008828;28;20384;-53
2021/05/02 06:50:54;;;;;;;30.83;22.58;;;10.30;99.90;;;;;;5010084;28;20373;-52
2021/05/02 06:53:20;;;;;;;34.60;23.43;;;10.30;99.90;;;;;;5008922;28;20405;-51
2021/05/02 06:55:46;;;;;;;34.93;22.00;;;10.40;99.90;;;;;;5009766;28;20399;-51
2021/05/02 06:58:11;;;;;;;30.35;21.25;;;10.40;99.90;;;;;;5008966;28;20388;-52
2021/05/02 07:00:38;;;;;;;27.55;19.70;;;10.80;99.90;;;;;;5009565;28;20384;-51
2021/05/02 07:03:05;;;;;;;28.08;19.92;;;11.00;99.90;;;;;;5026705;28;20387;-64
2021/05/02 07:05:32;;;;;;;28.77;19.10;;;11.00;99.90;;;;;;5029134;28;20379;-52
2021/05/02 07:07:58;;;;;;;26.38;19.00;;;11.00;99.90;;;;;;5028065;28;20390;-50
2021/05/02 07:10:23;;;;;;;24.40;18.20;;;11.40;99.90;;;;;;5026968;28;20464;-49
2021/05/02 07:12:49;;;;;;;25.20;17.60;;;11.50;99.90;;;;;;5029597;28;20473;-49
2021/05/02 07:15:15;;;;;;;25.98;18.38;;;12.10;99.90;;;;;;5028118;28;20757;-50
2021/05/02 07:17:41;;;;;;;24.90;18.00;;;12.50;99.90;;;;;;5029599;28;20979;-51
2021/05/02 07:20:10;;;;;;;25.63;18.13;;;12.40;99.90;;;;;;5028940;28;20396;-62
2021/05/02 07:22:36;;;;;;;26.25;18.20;;;12.30;99.90;;;;;;5029198;28;20387;-49
2021/05/02 07:25:01;;;;;;;25.07;18.00;;;11.80;99.90;;;;;;5027259;28;20390;-51
2021/05/02 07:27:27;;;;;;;23.98;17.88;;;11.40;99.90;;;;;;5028341;28;20391;-51
2021/05/02 07:29:52;;;;;;;23.63;17.37;;;11.50;99.90;;;;;;5028100;28;20738;-51
2021/05/02 07:32:18;;;;;;;22.05;16.63;;;11.50;99.90;;;;;;5028200;28;20383;-55
2021/05/02 07:34:44;;;;;;;21.37;15.70;;;11.60;99.90;;;;;;5029322;28;20874;-49
2021/05/02 07:37:10;;;;;;;22.10;16.07;;;12.10;99.90;;;;;;5028305;28;20394;-52
2021/05/02 07:39:36;;;;;;;25.20;16.73;;;12.10;99.90;;;;;;5029057;28;20857;-50
2021/05/02 07:42:02;;;;;;;22.90;16.60;;;11.80;99.90;;;;;;5029033;28;20419;-49
2021/05/02 07:44:28;;;;;;;22.17;15.32;;;12.60;99.90;;;;;;5028048;28;20933;-49
2021/05/02 07:46:53;;;;;;;20.23;15.20;;;13.50;99.90;;;;;;5029070;28;20375;-50
2021/05/02 07:49:19;;;;;;;22.80;15.80;;;14.00;99.90;;;;;;5027971;28;20467;-51
2021/05/02 07:51:45;;;;;;;19.70;15.03;;;14.20;99.90;;;;;;5028827;28;20381;-50
2021/05/02 07:54:10;;;;;;;21.02;15.43;;;14.10;99.90;;;;;;5026735;28;20403;-51
2021/05/02 07:56:36;;;;;;;20.93;15.60;;;14.10;99.90;;;;;;5029041;28;20411;-49
2021/05/02 07:59:02;;;;;;;19.85;15.18;;;14.50;99.90;;;;;;5032115;28;20869;-50
2021/05/02 08:01:28;;;;;;;20.05;15.27;;;14.10;99.90;;;;;;5027189;28;20392;-50
2021/05/02 08:03:53;;;;;;;23.88;15.60;;;14.10;99.90;;;;;;5012390;28;20380;-50
2021/05/02 08:06:19;;;;;;;19.73;14.68;;;13.90;99.90;;;;;;5011501;28;20385;-50
2021/05/02 08:08:45;;;;;;;20.63;15.40;;;13.60;99.90;;;;;;5011686;28;20389;-50
2021/05/02 08:11:10;;;;;;;20.95;15.55;;;14.10;99.90;;;;;;5011922;28;20476;-50
2021/05/02 08:13:36;;;;;;;19.80;15.07;;;14.30;99.90;;;;;;5012055;28;20800;-50
2021/05/02 08:16:03;;;;;;;20.55;16.05;;;13.70;99.90;;;;;;5011602;28;20393;-50
2021/05/02 08:18:28;;;;;;;21.75;14.70;;;13.80;99.90;;;;;;5012126;28;20565;-50
2021/05/02 08:20:54;;;;;;;20.23;15.77;;;14.90;99.90;;;;;;5012396;28;20872;-50
2021/05/02 08:23:20;;;;;;;20.30;15.53;;;15.70;99.90;;;;;;5011485;28;20420;-50
2021/05/02 08:25:45;;;;;;;20.23;15.52;;;16.90;99.90;;;;;;5012208;28;20926;-51
2021/05/02 08:28:11;;;;;;;21.60;16.57;;;16.30;99.50;;;;;;5011773;28;20795;-51
2021/05/02 08:30:37;;;;;;;21.02;15.45;;;16.20;99.00;;;;;;5012504;28;20443;-56
2021/05/02 08:33:02;;;;;;;20.63;16.50;;;15.50;98.90;;;;;;5009216;28;20414;-51
2021/05/02 08:35:28;;;;;;;23.50;16.70;;;14.40;99.90;;;;;;5002222;28;20413;-51
2021/05/02 08:37:54;;;;;;;25.13;16.17;;;14.40;99.90;;;;;;4992377;28;20406;-51
2021/05/02 08:40:19;;;;;;;22.83;16.50;;;13.60;99.90;;;;;;5006712;28;20402;-48
2021/05/02 08:42:45;;;;;;;23.27;16.07;;;13.20;99.90;;;;;;4992406;28;20462;-52
2021/05/02 08:45:11;;;;;;;24.55;16.48;;;12.80;99.90;;;;;;4990559;28;20452;-50
2021/05/02 08:47:37;;;;;;;21.35;15.32;;;12.80;99.90;;;;;;4992191;28;20387;-50
2021/05/02 08:50:11;;;;;;;22.20;16.50;;;13.90;99.90;;;;;;4992105;28;20383;-50
2021/05/02 08:52:38;;;;;;;21.55;16.08;;;14.00;99.90;;;;;;4992245;28;20379;-50
2021/05/02 08:55:07;;;;;;;23.02;17.02;;;14.30;99.90;;;;;;4991079;28;20411;-49
2021/05/02 08:57:36;;;;;;;30.35;18.30;;;15.20;99.90;;;;;;4991711;28;20398;-53
2021/05/02 09:00:05;;;;;;;27.80;17.95;;;16.10;99.90;;;;;;4990304;28;20485;-50
2021/05/02 09:02:31;;;;;;;23.40;16.17;;;16.80;98.40;;;;;;5017572;28;20418;-50
2021/05/02 09:04:59;;;;;;;27.27;17.38;;;17.40;95.10;;;;;;4996171;28;20410;-50
2021/05/02 09:07:25;;;;;;;25.27;18.15;;;17.20;95.60;;;;;;4991100;28;20448;-50
2021/05/02 09:09:51;;;;;;;22.58;16.20;;;17.20;95.60;;;;;;4991577;28;20850;-50
2021/05/02 09:12:22;;;;;;;20.57;16.00;;;17.30;93.90;;;;;;4989480;28;20762;-49
2021/05/02 09:14:48;;;;;;;21.20;16.92;;;17.60;93.90;;;;;;4992427;28;20441;-50
2021/05/02 09:17:25;;;;;;;23.13;17.55;;;16.60;94.80;;;;;;4990912;28;20392;-53
2021/05/02 09:19:52;;;;;;;22.23;16.70;;;18.70;95.50;;;;;;4990892;28;20422;-51
2021/05/02 09:22:20;;;;;;;21.08;16.33;;;17.20;93.70;;;;;;4989805;28;20405;-53
2021/05/02 09:25:17;;;;;;;20.33;16.08;;;16.70;94.10;;;;;;4992104;28;20846;-52
2021/05/02 09:27:50;;;;;;;20.05;15.23;;;17.70;95.30;;;;;;4957993;28;20398;-49
2021/05/02 09:30:18;;;;;;;23.25;17.13;;;18.90;91.10;;;;;;4991045;28;20581;-58
2021/05/02 09:32:45;;;;;;;24.50;17.73;;;16.90;91.60;;;;;;4990396;28;20398;-53
2021/05/02 09:35:49;;;;;;;25.20;17.73;;;15.90;93.80;;;;;;4989530;28;20437;-52
2021/05/02 09:38:16;;;;;;;23.67;17.58;;;14.70;97.40;;;;;;4970270;28;20498;-48
2021/05/02 09:40:54;;;;;;;24.40;18.90;;;16.60;99.30;;;;;;4990965;28;20492;-49
2021/05/02 09:43:49;;;;;;;23.37;17.90;;;13.90;99.90;;;;;;4990831;28;20495;-50
2021/05/02 09:46:31;;;;;;;22.95;17.05;;;14.80;99.90;;;;;;4982650;28;20394;-50
2021/05/02 09:48:59;;;;;;;20.88;16.60;;;17.30;94.50;;;;;;4991439;28;20441;-51
2021/05/02 09:51:27;;;;;;;22.15;17.38;;;18.90;90.60;;;;;;4990452;28;20410;-50
2021/05/02 09:54:06;;;;;;;26.00;18.55;;;18.70;89.70;;;;;;4989809;28;20501;-52
2021/05/02 09:57:06;;;;;;;22.65;17.52;;;17.80;88.00;;;;;;4989379;28;20406;-56
2021/05/02 09:59:33;;;;;;;22.92;18.10;;;16.60;90.90;;;;;;4981771;28;20557;-58
2021/05/02 10:02:20;;;;;;;27.80;19.60;;;15.20;91.90;;;;;;5008405;28;20383;-51
2021/05/02 10:04:52;;;;;;;26.08;18.70;;;13.80;95.10;;;;;;4998440;28;20435;-49
2021/05/02 10:07:28;;;;;;;26.58;18.67;;;13.30;96.90;;;;;;4990502;28;20940;-51
2021/05/02 10:09:55;;;;;;;26.80;19.70;;;12.80;99.20;;;;;;4991132;28;20388;-53
2021/05/02 10:12:21;;;;;;;27.88;18.98;;;12.20;99.90;;;;;;4989551;28;20410;-52
2021/05/02 10:14:49;;;;;;;26.25;18.75;;;12.20;99.90;;;;;;4990881;28;20862;-50
2021/05/02 10:17:15;;;;;;;25.52;18.85;;;12.40;99.90;;;;;;4988883;28;20405;-52
2021/05/02 10:19:41;;;;;;;24.15;18.08;;;13.80;99.90;;;;;;4990567;28;20390;-52
2021/05/02 10:22:08;;;;;;;24.00;18.60;;;15.40;95.60;;;;;;4989379;28;20423;-64
2021/05/02 10:24:34;;;;;;;24.95;18.58;;;15.40;93.70;;;;;;4989129;28;20799;-52
2021/05/02 10:27:00;;;;;;;24.20;18.40;;;15.10;93.60;;;;;;4990151;28;20429;-49
2021/05/02 10:29:31;;;;;;;25.35;19.45;;;14.30;94.10;;;;;;4988017;28;20430;-52
2021/05/02 10:32:03;;;;;;;25.45;18.88;;;13.80;95.70;;;;;;4973324;28;20409;-49
2021/05/02 10:34:34;;;;;;;25.40;18.58;;;13.90;96.10;;;;;;4989484;28;20402;-49
2021/05/02 10:37:25;;;;;;;23.07;18.40;;;13.60;96.90;;;;;;4999684;28;20387;-50
2021/05/02 10:40:18;;;;;;;24.27;18.53;;;13.70;98.40;;;;;;5007282;28;20449;-52
2021/05/02 10:42:56;;;;;;;22.40;16.27;;;13.80;97.50;;;;;;5001492;28;20496;-50
2021/05/02 10:45:30;;;;;;;21.60;17.23;;;14.50;95.80;;;;;;5006819;28;20388;-54
2021/05/02 10:48:00;;;;;;;22.15;17.23;;;15.20;94.90;;;;;;5010103;28;20482;-56
2021/05/02 10:50:27;;;;;;;23.33;17.20;;;15.10;96.30;;;;;;5009401;28;20393;-52
2021/05/02 10:53:10;;;;;;;20.93;16.20;;;15.40;96.00;;;;;;5009713;28;20868;-52
2021/05/02 10:55:47;;;;;;;22.70;17.83;;;15.60;92.60;;;;;;5008212;28;20407;-48
2021/05/02 10:58:25;;;;;;;20.30;16.33;;;15.00;94.90;;;;;;5000531;28;20431;-48
2021/05/02 11:01:03;;;;;;;21.05;16.40;;;15.70;96.70;;;;;;5010427;28;20470;-50
2021/05/02 11:03:41;;;;;;;21.38;16.60;;;15.60;93.10;;;;;;5002716;28;20497;-47
2021/05/02 11:06:12;;;;;;;20.07;16.53;;;14.90;93.70;;;;;;5000469;28;20396;-47
2021/05/02 11:08:51;;;;;;;19.65;15.65;;;15.00;95.50;;;;;;4990822;28;20928;-50
2021/05/02 11:11:32;;;;;;;23.03;16.00;;;15.80;93.00;;;;;;4989425;28;20457;-50
2021/05/02 11:16:46;;;;;;;24.25;15.80;;;15.00;91.10;;;;;;4999418;28;20464;-48
2021/05/02 11:19:34;;;;;;;20.45;16.88;;;14.60;92.80;;;;;;5006865;28;20434;-48
2021/05/02 11:22:04;;;;;;;27.25;17.33;;;14.50;93.90;;;;;;5008971;28;20407;-48
2021/05/02 11:24:43;;;;;;;22.73;16.38;;;13.50;97.90;;;;;;5003670;28;20657;-53
2021/05/02 11:27:24;;;;;;;24.38;18.73;;;11.90;99.90;;;;;;4999819;28;20383;-63
2021/05/02 11:29:54;;;;;;;25.45;19.35;;;11.70;99.90;;;;;;4998680;28;20385;-55
2021/05/02 11:32:30;;;;;;;21.60;16.60;;;12.00;99.90;;;;;;4990147;28;20394;-50
2021/05/02 11:35:00;;;;;;;18.20;13.95;;;12.70;99.90;;;;;;5006509;28;20418;-50
2021/05/02 11:37:55;;;;;;;17.55;13.52;;;13.50;99.90;;;;;;4994110;28;20397;-50
2021/05/02 11:40:24;;;;;;;18.23;12.43;;;13.90;99.90;;;;;;4998833;28;20398;-50
2021/05/02 11:42:55;;;;;;;16.35;12.60;;;14.00;99.90;;;;;;4998230;28;20834;-50
2021/05/02 11:45:22;;;;;;;18.40;13.07;;;13.70;99.90;;;;;;4993474;28;20916;-50
2021/05/02 11:47:49;;;;;;;16.57;12.40;;;13.50;99.90;;;;;;4993762;28;20892;-50
2021/05/02 11:50:18;;;;;;;12.35;9.48;;;13.90;99.90;;;;;;5009371;28;20483;-50
2021/05/02 11:52:48;;;;;;;11.95;8.68;;;13.90;99.90;;;;;;5012693;28;20377;-53
2021/05/02 11:55:28;;;;;;;13.55;10.13;;;13.70;99.90;;;;;;5012095;28;20420;-53
2021/05/02 11:57:54;;;;;;;15.52;11.63;;;13.50;99.90;;;;;;5011422;28;20428;-50
2021/05/02 12:00:46;;;;;;;15.88;11.20;;;13.30;99.90;;;;;;5012160;28;20875;-56
2021/05/02 12:03:15;;;;;;;16.30;12.23;;;13.30;99.90;;;;;;5022921;28;20405;-63
2021/05/02 12:05:55;;;;;;;17.25;13.20;;;13.40;99.90;;;;;;4993322;28;20386;-50
2021/05/02 12:08:23;;;;;;;16.77;12.93;;;13.70;99.90;;;;;;4991518;28;20433;-51
2021/05/02 12:11:00;;;;;;;16.38;13.00;;;13.70;99.90;;;;;;4993095;28;20458;-51
2021/05/02 12:13:40;;;;;;;17.90;13.30;;;14.10;99.90;;;;;;4992648;28;20464;-50
2021/05/02 12:16:13;;;;;;;17.60;13.35;;;14.00;99.90;;;;;;4992492;28;20410;-50
2021/05/02 12:18:49;;;;;;;18.13;14.02;;;13.90;99.90;;;;;;4991073;28;20882;-50
2021/05/02 12:21:41;;;;;;;17.60;13.95;;;13.40;99.90;;;;;;4992471;28;20839;-50
2021/05/02 12:24:19;;;;;;;17.80;13.90;;;13.20;99.90;;;;;;4990941;28;20403;-50
2021/05/02 12:26:55;;;;;;;17.97;14.83;;;13.40;99.90;;;;;;4993268;28;20406;-50
2021/05/02 12:29:32;;;;;;;20.60;14.68;;;13.50;99.90;;;;;;4992310;28;20394;-53
2021/05/02 12:32:03;;;;;;;19.00;14.98;;;13.50;99.90;;;;;;4992888;28;20469;-53
2021/05/02 12:34:32;;;;;;;17.60;13.80;;;13.60;99.90;;;;;;4990666;28;20410;-50
2021/05/02 12:37:06;;;;;;;18.08;13.90;;;14.20;99.90;;;;;;4991470;28;20386;-50
2021/05/02 12:39:38;;;;;;;18.00;13.30;;;13.40;99.90;;;;;;4992074;28;20386;-50
2021/05/02 12:42:04;;;;;;;21.40;14.57;;;13.50;99.90;;;;;;4992755;28;20418;-55
2021/05/02 12:44:32;;;;;;;18.92;15.27;;;13.60;99.90;;;;;;4991254;28;20390;-50
2021/05/02 12:47:03;;;;;;;17.57;13.53;;;13.50;99.90;;;;;;4991437;28;20387;-50